Time;durP1;ratioP1;P1;durP2;ratioP2;P2;SDS_P1;SDS_P2;PMS_P1;PMS_P2;Temp;Humidity;BMP_temperature;BMP_pressure;BME280_temperature;BME280_humidity;BME280_pressure;Samples;Min_cycle;Max_cycle;Signal;HPM_P1;HPM_P2
2023/02/24 00:01:23;;;;;;;;;;;;;;;;;;4940243;29;20299;-75
2023/02/24 00:04:10;;;;;;;;;;;;;;;;;;4927047;29;19930;-74
2023/02/24 00:06:56;;;;;;;;;;;;;;;;;;4943518;29;19953;-74
2023/02/24 00:09:45;;;;;;;;;;;;;;;;;;4940673;29;19930;-75
2023/02/24 00:12:32;;;;;;;;;;;;;;;;;;4941041;29;19930;-75
2023/02/24 00:15:19;;;;;;;;;;;;;;;;;;4938290;29;19918;-75
2023/02/24 00:18:05;;;;;;;;;;;;;;;;;;4946278;29;19929;-74
2023/02/24 00:20:55;;;;;;;;;;;;;;;;;;4939566;29;19915;-74
2023/02/24 00:23:42;;;;;;;;;;;;;;;;;;4946326;28;19942;-74
2023/02/24 00:26:29;;;;;;;;;;;;;;;;;;4941898;29;19923;-74
2023/02/24 00:29:15;;;;;;;;;;;;;;;;;;4939268;29;20043;-74
2023/02/24 00:32:05;;;;;;;;;;;;;;;;;;4941923;29;19945;-75
2023/02/24 00:34:51;;;;;;;;;;;;;;;;;;4929751;28;19929;-75
2023/02/24 00:37:38;;;;;;;;;;;;;;;;;;4942615;29;19930;-74
2023/02/24 00:40:25;;;;;;;;;;;;;;;;;;4932844;29;20415;-75
2023/02/24 00:43:12;;;;;;;;;;;;;;;;;;4946080;29;20470;-74
2023/02/24 00:45:58;;;;;;;;;;;;;;;;;;4940318;29;19918;-74
2023/02/24 00:48:45;;;;;;;;;;;;;;;;;;4942752;28;19923;-74
2023/02/24 00:51:32;;;;;;;;;;;;;;;;;;4939414;29;20018;-74
2023/02/24 00:54:19;;;;;;;;;;;;;;;;;;4931342;29;19922;-74
2023/02/24 00:57:07;;;;;;;;;;;;;;;;;;4944891;28;19921;-74
2023/02/24 00:59:53;;;;;;;;;;;;;;;;;;4941918;29;20042;-76
2023/02/24 01:02:43;;;;;;;;;;;;;;;;;;4944844;29;20363;-74
2023/02/24 01:05:30;;;;;;;;;;;;;;;;;;4938998;29;19919;-74
2023/02/24 01:08:18;;;;;;;;;;;;;;;;;;4940542;29;20399;-74
2023/02/24 01:14:10;;;;;;;;;;;;;;;;;;4935011;29;19925;-74
2023/02/24 01:16:56;;;;;;;;;;;;;;;;;;4941318;29;20291;-74
2023/02/24 01:19:43;;;;;;;;;;;;;;;;;;4947000;28;19919;-74
2023/02/24 01:22:30;;;;;;;;;;;;;;;;;;4936857;28;20382;-74
2023/02/24 01:25:19;;;;;;;;;;;;;;;;;;4945240;28;19959;-74
2023/02/24 01:28:05;;;;;;;;;;;;;;;;;;4939256;29;19925;-73
2023/02/24 01:30:52;;;;;;;;;;;;;;;;;;4939210;29;19925;-77
2023/02/24 01:33:38;;;;;;;;;;;;;;;;;;4925334;29;19957;-75
2023/02/24 01:36:25;;;;;;;;;;;;;;;;;;4944552;28;19925;-76
2023/02/24 01:39:12;;;;;;;;;;;;;;;;;;4933885;29;19930;-75
2023/02/24 01:42:01;;;;;;;;;;;;;;;;;;4935144;29;19919;-76
2023/02/24 01:44:50;;;;;;;;;;;;;;;;;;4939045;28;19931;-75
2023/02/24 01:47:37;;;;;;;;;;;;;;;;;;4941412;29;19926;-76
2023/02/24 01:50:24;;;;;;;;;;;;;;;;;;4925735;29;19930;-75
2023/02/24 01:53:11;;;;;;;;;;;;;;;;;;4944676;28;19925;-75
2023/02/24 01:55:57;;;;;;;;;;;;;;;;;;4934487;29;20295;-74
2023/02/24 01:58:44;;;;;;;;;;;;;;;;;;4947679;28;19928;-76
2023/02/24 02:01:39;;;;;;;;;;;;;;;;;;4943793;29;19914;-75
2023/02/24 02:04:25;;;;;;;;;;;;;;;;;;4939783;28;19930;-75
2023/02/24 02:07:12;;;;;;;;;;;;;;;;;;4922173;29;19954;-76
2023/02/24 02:10:02;;;;;;;;;;;;;;;;;;4926117;29;19922;-76
2023/02/24 02:12:50;;;;;;;;;;;;;;;;;;4941530;28;19919;-76
2023/02/24 02:15:36;;;;;;;;;;;;;;;;;;4930350;29;19953;-76
2023/02/24 02:18:23;;;;;;;;;;;;;;;;;;4939530;29;19926;-76
2023/02/24 02:21:09;;;;;;;;;;;;;;;;;;4944233;28;19929;-76
2023/02/24 02:23:56;;;;;;;;;;;;;;;;;;4942616;28;19930;-75
2023/02/24 02:26:43;;;;;;;;;;;;;;;;;;4935665;29;19965;-76
2023/02/24 02:29:29;;;;;;;;;;;;;;;;;;4943400;29;19918;-76
2023/02/24 02:32:16;;;;;;;;;;;;;;;;;;4935871;28;19915;-76
2023/02/24 02:35:02;;;;;;;;;;;;;;;;;;4937404;29;20321;-76
2023/02/24 02:37:49;;;;;;;;;;;;;;;;;;4939456;29;19929;-76
2023/02/24 02:40:36;;;;;;;;;;;;;;;;;;4928464;29;19919;-76
2023/02/24 02:43:24;;;;;;;;;;;;;;;;;;4939282;29;20538;-76
2023/02/24 02:46:13;;;;;;;;;;;;;;;;;;4937021;29;19915;-76
2023/02/24 02:49:00;;;;;;;;;;;;;;;;;;4943436;29;19918;-76
2023/02/24 02:51:46;;;;;;;;;;;;;;;;;;4939520;29;19919;-76
2023/02/24 02:54:32;;;;;;;;;;;;;;;;;;4940652;29;19919;-76
2023/02/24 02:57:19;;;;;;;;;;;;;;;;;;4931297;29;19918;-75
2023/02/24 03:00:23;;;;;;;;;;;;;;;;;;4941460;29;19929;-76
2023/02/24 03:03:11;;;;;;;;;;;;;;;;;;4940034;29;20740;-76
2023/02/24 03:05:57;;;;;;;;;;;;;;;;;;4935148;28;19922;-76
2023/02/24 03:08:44;;;;;;;;;;;;;;;;;;4945521;29;19950;-75
2023/02/24 03:11:32;;;;;;;;;;;;;;;;;;4928945;29;20010;-75
2023/02/24 03:14:18;;;;;;;;;;;;;;;;;;4940108;29;19923;-75
2023/02/24 03:17:05;;;;;;;;;;;;;;;;;;4940445;29;19925;-76
2023/02/24 03:19:59;;;;;;;;;;;;;;;;;;4939417;28;19922;-76
2023/02/24 03:22:46;;;;;;;;;;;;;;;;;;4942659;29;19914;-75
2023/02/24 03:25:37;;;;;;;;;;;;;;;;;;4946098;29;19930;-76
2023/02/24 03:28:23;;;;;;;;;;;;;;;;;;4941462;28;19925;-75
2023/02/24 03:31:10;;;;;;;;;;;;;;;;;;4942324;28;19927;-76
2023/02/24 03:33:59;;;;;;;;;;;;;;;;;;4929135;28;19919;-76
2023/02/24 03:36:45;;;;;;;;;;;;;;;;;;4936152;29;19918;-75
2023/02/24 03:39:32;;;;;;;;;;;;;;;;;;4944062;28;19918;-76
2023/02/24 03:42:18;;;;;;;;;;;;;;;;;;4941849;28;19919;-75
2023/02/24 03:45:05;;;;;;;;;;;;;;;;;;4946481;28;20680;-76
2023/02/24 03:47:54;;;;;;;;;;;;;;;;;;4947519;29;19926;-75
2023/02/24 03:50:41;;;;;;;;;;;;;;;;;;4947767;29;19923;-76
2023/02/24 03:53:29;;;;;;;;;;;;;;;;;;4938673;29;19919;-76
2023/02/24 03:56:16;;;;;;;;;;;;;;;;;;4942882;28;19918;-76
2023/02/24 03:59:02;;;;;;;;;;;;;;;;;;4940851;29;19918;-76
2023/02/24 04:01:50;;;;;;;;;;;;;;;;;;4922535;29;19926;-76
2023/02/24 04:04:37;;;;;;;;;;;;;;;;;;4935215;29;20391;-75
2023/02/24 04:07:25;;;;;;;;;;;;;;;;;;4937408;29;19918;-75
2023/02/24 04:10:11;;;;;;;;;;;;;;;;;;4942724;29;20050;-75
2023/02/24 04:12:58;;;;;;;;;;;;;;;;;;4926273;29;19919;-75
2023/02/24 04:15:44;;;;;;;;;;;;;;;;;;4936333;29;19918;-75
2023/02/24 04:18:31;;;;;;;;;;;;;;;;;;4934911;29;19915;-75
2023/02/24 04:21:17;;;;;;;;;;;;;;;;;;4942196;29;19918;-76
2023/02/24 04:24:07;;;;;;;;;;;;;;;;;;4917467;29;19958;-75
2023/02/24 04:26:57;;;;;;;;;;;;;;;;;;4938023;29;19915;-76
2023/02/24 04:29:46;;;;;;;;;;;;;;;;;;4945722;29;19922;-75
2023/02/24 04:32:32;;;;;;;;;;;;;;;;;;4929331;29;19929;-75
2023/02/24 04:35:19;;;;;;;;;;;;;;;;;;4941618;29;20419;-75
2023/02/24 04:38:05;;;;;;;;;;;;;;;;;;4935346;29;19923;-75
2023/02/24 04:40:52;;;;;;;;;;;;;;;;;;4944921;29;19923;-75
2023/02/24 04:43:39;;;;;;;;;;;;;;;;;;4939069;29;19922;-75
2023/02/24 04:46:26;;;;;;;;;;;;;;;;;;4943756;29;20453;-74
2023/02/24 04:49:12;;;;;;;;;;;;;;;;;;4944705;29;19938;-74
2023/02/24 04:51:59;;;;;;;;;;;;;;;;;;4932572;28;19919;-75
2023/02/24 04:54:46;;;;;;;;;;;;;;;;;;4946276;29;19923;-75
2023/02/24 04:57:36;;;;;;;;;;;;;;;;;;4933820;29;19925;-75
2023/02/24 05:00:25;;;;;;;;;;;;;;;;;;4937159;29;19988;-75
2023/02/24 05:03:11;;;;;;;;;;;;;;;;;;4935858;29;19922;-76
2023/02/24 05:05:58;;;;;;;;;;;;;;;;;;4937663;29;19933;-76
2023/02/24 05:08:45;;;;;;;;;;;;;;;;;;4941370;28;19931;-75
2023/02/24 05:11:33;;;;;;;;;;;;;;;;;;4936471;28;19926;-75
2023/02/24 05:14:20;;;;;;;;;;;;;;;;;;4937761;29;19918;-75
2023/02/24 05:17:06;;;;;;;;;;;;;;;;;;4927478;29;19925;-75
2023/02/24 05:22:59;;;;;;;;;;;;;;;;;;4939973;29;20334;-75
2023/02/24 05:25:46;;;;;;;;;;;;;;;;;;4938979;29;19963;-75
2023/02/24 05:28:33;;;;;;;;;;;;;;;;;;4937525;29;19918;-75
2023/02/24 05:31:20;;;;;;;;;;;;;;;;;;4921782;29;19919;-76
2023/02/24 05:34:06;;;;;;;;;;;;;;;;;;4928703;29;19918;-76
2023/02/24 05:36:53;;;;;;;;;;;;;;;;;;4941239;29;19925;-76
2023/02/24 05:39:39;;;;;;;;;;;;;;;;;;4935570;29;19923;-76
2023/02/24 05:42:26;;;;;;;;;;;;;;;;;;4941242;29;19914;-76
2023/02/24 05:45:13;;;;;;;;;;;;;;;;;;4942957;28;19937;-77
2023/02/24 05:47:59;;;;;;;;;;;;;;;;;;4939119;29;19918;-76
2023/02/24 05:50:46;;;;;;;;;;;;;;;;;;4944621;29;19965;-76
2023/02/24 05:53:32;;;;;;;;;;;;;;;;;;4939914;29;19926;-76
2023/02/24 05:56:20;;;;;;;;;;;;;;;;;;4930484;29;19985;-77
2023/02/24 05:59:07;;;;;;;;;;;;;;;;;;4919746;29;19957;-77
2023/02/24 06:01:54;;;;;;;;;;;;;;;;;;4925144;29;19969;-76
2023/02/24 06:04:49;;;;;;;;;;;;;;;;;;4939980;28;19938;-76
2023/02/24 06:07:36;;;;;;;;;;;;;;;;;;4926951;29;19949;-76
2023/02/24 06:10:22;;;;;;;;;;;;;;;;;;4936871;28;19927;-76
2023/02/24 06:13:09;;;;;;;;;;;;;;;;;;4932834;28;19919;-76
2023/02/24 06:15:56;;;;;;;;;;;;;;;;;;4952000;28;19918;-76
2023/02/24 06:18:43;;;;;;;;;;;;;;;;;;4931358;29;19934;-75
2023/02/24 06:21:29;;;;;;;;;;;;;;;;;;4930270;29;19922;-76
2023/02/24 06:24:17;;;;;;;;;;;;;;;;;;4941683;28;19934;-76
2023/02/24 06:27:08;;;;;;;;;;;;;;;;;;4934349;28;19918;-77
2023/02/24 06:29:55;;;;;;;;;;;;;;;;;;4935223;28;19966;-76
2023/02/24 06:32:43;;;;;;;;;;;;;;;;;;4933486;28;19926;-77
2023/02/24 06:35:31;;;;;;;;;;;;;;;;;;4936515;28;19922;-77
2023/02/24 06:38:18;;;;;;;;;;;;;;;;;;4933290;28;20655;-77
2023/02/24 06:41:09;;;;;;;;;;;;;;;;;;4941153;28;19929;-77
2023/02/24 06:43:56;;;;;;;;;;;;;;;;;;4935398;28;19941;-73
2023/02/24 06:46:42;;;;;;;;;;;;;;;;;;4938724;28;21243;-75
2023/02/24 06:49:29;;;;;;;;;;;;;;;;;;4935508;29;19934;-76
2023/02/24 06:52:17;;;;;;;;;;;;;;;;;;4911038;29;19919;-75
2023/02/24 06:55:03;;;;;;;;;;;;;;;;;;4933908;28;19918;-75
2023/02/24 06:57:51;;;;;;;;;;;;;;;;;;4939636;29;19938;-76
2023/02/24 07:00:38;;;;;;;;;;;;;;;;;;4937155;28;19926;-75
2023/02/24 07:03:37;;;;;;;;;;;;;;;;;;4913582;28;19923;-75
2023/02/24 07:06:24;;;;;;;;;;;;;;;;;;4934089;28;19931;-76
2023/02/24 07:09:11;;;;;;;;;;;;;;;;;;4931702;28;19935;-76
2023/02/24 07:12:01;;;;;;;;;;;;;;;;;;4932321;28;19922;-76
2023/02/24 07:14:49;;;;;;;;;;;;;;;;;;4944248;28;19934;-76
2023/02/24 07:17:35;;;;;;;;;;;;;;;;;;4947842;28;20528;-74
2023/02/24 07:20:24;;;;;;;;;;;;;;;;;;4935084;28;19937;-75
2023/02/24 07:23:11;;;;;;;;;;;;;;;;;;4939125;28;19925;-75
2023/02/24 07:25:57;;;;;;;;;;;;;;;;;;4929488;28;19926;-76
2023/02/24 07:28:44;;;;;;;;;;;;;;;;;;4931072;28;19999;-75
2023/02/24 07:31:35;;;;;;;;;;;;;;;;;;4936462;28;20003;-75
2023/02/24 07:34:23;;;;;;;;;;;;;;;;;;4935029;28;19918;-75
2023/02/24 07:37:10;;;;;;;;;;;;;;;;;;4942993;28;19923;-74
2023/02/24 07:39:57;;;;;;;;;;;;;;;;;;4930231;29;19918;-76
2023/02/24 07:42:46;;;;;;;;;;;;;;;;;;4936143;28;19918;-76
2023/02/24 07:45:33;;;;;;;;;;;;;;;;;;4926813;28;19938;-75
2023/02/24 07:48:20;;;;;;;;;;;;;;;;;;4931386;28;19918;-75
2023/02/24 07:51:06;;;;;;;;;;;;;;;;;;4933379;28;19918;-76
2023/02/24 07:53:53;;;;;;;;;;;;;;;;;;4944817;28;20135;-76
2023/02/24 07:56:44;;;;;;;;;;;;;;;;;;4927891;28;19926;-75
2023/02/24 07:59:31;;;;;;;;;;;;;;;;;;4942033;28;20375;-75
2023/02/24 08:02:17;;;;;;;;;;;;;;;;;;4940055;28;19926;-76
2023/02/24 08:05:07;;;;;;;;;;;;;;;;;;4940629;28;19926;-74
2023/02/24 08:07:55;;;;;;;;;;;;;;;;;;4935476;28;19930;-76
2023/02/24 08:10:42;;;;;;;;;;;;;;;;;;4939972;28;19927;-76
2023/02/24 08:13:36;;;;;;;;;;;;;;;;;;4935212;28;19945;-75
2023/02/24 08:16:22;;;;;;;;;;;;;;;;;;4940342;28;19932;-75
2023/02/24 08:19:12;;;;;;;;;;;;;;;;;;4944576;28;20100;-77
2023/02/24 08:22:06;;;;;;;;;;;;;;;;;;4938443;28;19922;-77
2023/02/24 08:24:52;;;;;;;;;;;;;;;;;;4933679;28;19934;-77
2023/02/24 08:27:39;;;;;;;;;;;;;;;;;;4938401;29;19915;-77
2023/02/24 08:30:28;;;;;;;;;;;;;;;;;;4941041;29;20022;-75
2023/02/24 08:33:16;;;;;;;;;;;;;;;;;;4945844;28;19925;-76
2023/02/24 08:36:02;;;;;;;;;;;;;;;;;;4941358;29;19922;-75
2023/02/24 08:38:50;;;;;;;;;;;;;;;;;;4937151;28;19918;-77
2023/02/24 08:41:50;;;;;;;;;;;;;;;;;;4937651;28;19937;-77
2023/02/24 08:44:36;;;;;;;;;;;;;;;;;;4938103;29;19953;-76
2023/02/24 08:47:29;;;;;;;;;;;;;;;;;;4927324;28;19922;-76
2023/02/24 08:50:16;;;;;;;;;;;;;;;;;;4931560;29;19922;-77
2023/02/24 08:53:02;;;;;;;;;;;;;;;;;;4945837;29;20377;-76
2023/02/24 08:55:50;;;;;;;;;;;;;;;;;;4940623;28;20375;-76
2023/02/24 08:58:39;;;;;;;;;;;;;;;;;;4936169;28;19922;-76
2023/02/24 09:01:26;;;;;;;;;;;;;;;;;;4942588;28;19922;-76
2023/02/24 09:04:17;;;;;;;;;;;;;;;;;;4939956;28;19922;-77
2023/02/24 09:07:09;;;;;;;;;;;;;;;;;;4943917;29;20590;-77
2023/02/24 09:09:56;;;;;;;;;;;;;;;;;;4938115;28;19931;-79
2023/02/24 09:12:42;;;;;;;;;;;;;;;;;;4937163;29;19922;-79
2023/02/24 09:15:40;;;;;;;;;;;;;;;;;;4941622;29;19931;-79
2023/02/24 09:18:29;;;;;;;;;;;;;;;;;;4924287;29;19919;-79
2023/02/24 09:22:13;;;;;;;;;;;;;;;;;;4932621;29;20711;-78
2023/02/24 09:24:27;;;;;;;;;;;;;;;;;;4936447;28;19923;-79
2023/02/24 09:27:16;;;;;;;;;;;;;;;;;;4933379;29;19915;-79
2023/02/24 09:30:06;;;;;;;;;;;;;;;;;;4938644;28;20371;-79
2023/02/24 09:32:59;;;;;;;;;;;;;;;;;;4926275;28;19922;-79
2023/02/24 09:35:46;;;;;;;;;;;;;;;;;;4934993;28;19926;-79
2023/02/24 09:39:08;;;;;;;;;;;;;;;;;;4939796;28;19922;-79
2023/02/24 09:44:48;;;;;;;;;;;;;;;;;;4932531;28;19923;-79
2023/02/24 09:50:45;;;;;;;;;;;;;;;;;;4931201;28;19930;-79
2023/02/24 09:53:37;;;;;;;;;;;;;;;;;;4932810;28;19919;-79
2023/02/24 09:56:24;;;;;;;;;;;;;;;;;;4937732;28;20023;-78
2023/02/24 09:59:10;;;;;;;;;;;;;;;;;;4932768;28;19923;-79
2023/02/24 10:02:00;;;;;;;;;;;;;;;;;;4938443;28;20375;-78
2023/02/24 10:04:47;;;;;;;;;;;;;;;;;;4935676;28;19922;-80
2023/02/24 10:07:37;;;;;;;;;;;;;;;;;;4935605;28;20302;-78
2023/02/24 10:10:26;;;;;;;;;;;;;;;;;;4941992;28;19923;-83
2023/02/24 10:13:13;;;;;;;;;;;;;;;;;;4938258;28;19953;-85
2023/02/24 10:16:04;;;;;;;;;;;;;;;;;;4939722;28;19934;-82
2023/02/24 10:18:59;;;;;;;;;;;;;;;;;;4929996;29;19918;-82
2023/02/24 10:21:59;;;;;;;;;;;;;;;;;;4938158;28;19926;-83
2023/02/24 10:24:46;;;;;;;;;;;;;;;;;;4935875;28;19936;-83
2023/02/24 10:27:32;;;;;;;;;;;;;;;;;;4940532;28;19950;-84
2023/02/24 10:30:19;;;;;;;;;;;;;;;;;;4937063;28;19915;-83
2023/02/24 10:33:05;;;;;;;;;;;;;;;;;;4936386;28;19915;-83
2023/02/24 10:35:53;;;;;;;;;;;;;;;;;;4936482;28;19922;-84
2023/02/24 10:38:39;;;;;;;;;;;;;;;;;;4939570;28;20537;-84
2023/02/24 10:41:28;;;;;;;;;;;;;;;;;;4942553;28;19969;-84
2023/02/24 10:44:15;;;;;;;;;;;;;;;;;;4947264;28;20254;-84
2023/02/24 10:47:10;;;;;;;;;;;;;;;;;;4931991;29;19928;-83
2023/02/24 10:49:56;;;;;;;;;;;;;;;;;;4940662;28;19919;-83
2023/02/24 10:52:49;;;;;;;;;;;;;;;;;;4922767;28;19922;-84
2023/02/24 10:58:36;;;;;;;;;;;;;;;;;;4933713;28;19923;-84
2023/02/24 11:01:39;;;;;;;;;;;;;;;;;;4943412;28;20173;-84
2023/02/24 11:04:32;;;;;;;;;;;;;;;;;;4914786;29;20372;-84
2023/02/24 11:07:32;;;;;;;;;;;;;;;;;;4942271;28;19938;-84
2023/02/24 11:10:25;;;;;;;;;;;;;;;;;;4945601;28;20402;-84
2023/02/24 11:19:21;;;;;;;;;;;;;;;;;;4933485;28;19919;-83
2023/02/24 11:22:08;;;;;;;;;;;;;;;;;;4939043;28;19938;-83
2023/02/24 11:24:54;;;;;;;;;;;;;;;;;;4937536;28;20247;-83
2023/02/24 11:27:41;;;;;;;;;;;;;;;;;;4943553;28;19922;-82
2023/02/24 11:30:28;;;;;;;;;;;;;;;;;;4937205;28;19923;-82
2023/02/24 11:33:15;;;;;;;;;;;;;;;;;;4938817;28;19918;-79
2023/02/24 11:36:01;;;;;;;;;;;;;;;;;;4939037;28;19922;-80
2023/02/24 11:38:48;;;;;;;;;;;;;;;;;;4935747;28;19947;-81
2023/02/24 11:41:34;;;;;;;;;;;;;;;;;;4940711;28;19930;-81
2023/02/24 11:44:21;;;;;;;;;;;;;;;;;;4935839;28;19942;-79
2023/02/24 11:47:08;;;;;;;;;;;;;;;;;;4934843;28;20337;-80
2023/02/24 11:49:54;;;;;;;;;;;;;;;;;;4937729;28;19926;-80
2023/02/24 11:52:41;;;;;;;;;;;;;;;;;;4934379;28;19923;-84
2023/02/24 11:55:28;;;;;;;;;;;;;;;;;;4936047;28;19930;-83
2023/02/24 11:58:15;;;;;;;;;;;;;;;;;;4942205;28;19918;-78
2023/02/24 12:01:01;;;;;;;;;;;;;;;;;;4941959;28;19918;-81
2023/02/24 12:03:49;;;;;;;;;;;;;;;;;;4937762;28;19925;-81
2023/02/24 12:06:35;;;;;;;;;;;;;;;;;;4938068;28;19964;-82
2023/02/24 12:09:25;;;;;;;;;;;;;;;;;;4938067;28;20322;-82
2023/02/24 12:12:11;;;;;;;;;;;;;;;;;;4935961;28;19919;-82
2023/02/24 12:14:58;;;;;;;;;;;;;;;;;;4935687;28;20256;-82
2023/02/24 12:17:45;;;;;;;;;;;;;;;;;;4938880;28;19923;-82
2023/02/24 12:20:33;;;;;;;;;;;;;;;;;;4934691;28;19946;-81
2023/02/24 12:23:21;;;;;;;;;;;;;;;;;;4934836;28;19921;-82
2023/02/24 12:26:08;;;;;;;;;;;;;;;;;;4934443;28;19931;-81
2023/02/24 12:28:55;;;;;;;;;;;;;;;;;;4939222;28;19941;-80
2023/02/24 12:31:42;;;;;;;;;;;;;;;;;;4937904;28;19941;-82
2023/02/24 12:34:28;;;;;;;;;;;;;;;;;;4936553;28;19923;-81
2023/02/24 12:37:16;;;;;;;;;;;;;;;;;;4933633;28;19925;-81
2023/02/24 12:40:03;;;;;;;;;;;;;;;;;;4927232;28;19925;-80
2023/02/24 12:42:50;;;;;;;;;;;;;;;;;;4938841;28;19918;-79
2023/02/24 12:45:37;;;;;;;;;;;;;;;;;;4934155;28;20379;-82
2023/02/24 12:48:23;;;;;;;;;;;;;;;;;;4936016;28;19927;-82
2023/02/24 12:51:10;;;;;;;;;;;;;;;;;;4932426;28;19923;-82
2023/02/24 12:53:56;;;;;;;;;;;;;;;;;;4932000;28;19918;-82
2023/02/24 12:56:44;;;;;;;;;;;;;;;;;;4937945;28;20299;-82
2023/02/24 12:59:30;;;;;;;;;;;;;;;;;;4934276;28;19969;-82
2023/02/24 13:02:17;;;;;;;;;;;;;;;;;;4942997;28;19915;-82
2023/02/24 13:05:03;;;;;;;;;;;;;;;;;;4942278;28;19937;-81
2023/02/24 13:07:50;;;;;;;;;;;;;;;;;;4938000;28;19938;-79
2023/02/24 13:10:37;;;;;;;;;;;;;;;;;;4944008;28;20306;-85
2023/02/24 13:13:23;;;;;;;;;;;;;;;;;;4939366;28;19919;-82
2023/02/24 13:16:10;;;;;;;;;;;;;;;;;;4929741;28;19949;-82
2023/02/24 13:18:56;;;;;;;;;;;;;;;;;;4943535;28;19918;-83
2023/02/24 13:21:43;;;;;;;;;;;;;;;;;;4945880;28;19926;-82
2023/02/24 13:24:29;;;;;;;;;;;;;;;;;;4935465;28;19922;-82
2023/02/24 13:27:16;;;;;;;;;;;;;;;;;;4931639;28;19919;-82
2023/02/24 13:30:02;;;;;;;;;;;;;;;;;;4929814;28;20563;-83
2023/02/24 13:32:49;;;;;;;;;;;;;;;;;;4940857;28;19918;-82
2023/02/24 13:35:35;;;;;;;;;;;;;;;;;;4933377;28;19915;-83
2023/02/24 13:38:22;;;;;;;;;;;;;;;;;;4911583;29;19915;-81
2023/02/24 13:41:18;;;;;;;;;;;;;;;;;;4938281;28;19929;-83
2023/02/24 13:44:04;;;;;;;;;;;;;;;;;;4930436;28;19929;-82
2023/02/24 13:46:51;;;;;;;;;;;;;;;;;;4938900;28;19931;-82
2023/02/24 13:49:37;;;;;;;;;;;;;;;;;;4949850;28;19921;-82
2023/02/24 13:52:24;;;;;;;;;;;;;;;;;;4933843;29;19936;-81
2023/02/24 13:55:10;;;;;;;;;;;;;;;;;;4936060;28;20740;-81
2023/02/24 13:57:57;;;;;;;;;;;;;;;;;;4929650;28;20468;-82
2023/02/24 14:00:43;;;;;;;;;;;;;;;;;;4937230;29;19953;-82
2023/02/24 14:03:30;;;;;;;;;;;;;;;;;;4936432;28;20268;-82
2023/02/24 14:06:16;;;;;;;;;;;;;;;;;;4943878;28;19937;-82
2023/02/24 14:09:03;;;;;;;;;;;;;;;;;;4936656;28;20426;-82
2023/02/24 14:11:50;;;;;;;;;;;;;;;;;;4944743;28;19926;-82
2023/02/24 14:14:36;;;;;;;;;;;;;;;;;;4920422;29;19918;-82
2023/02/24 14:17:27;;;;;;;;;;;;;;;;;;4912547;29;25761;-82
2023/02/24 14:20:14;;;;;;;;;;;;;;;;;;4924034;29;19921;-82
2023/02/24 14:23:01;;;;;;;;;;;;;;;;;;4944962;28;19919;-81
2023/02/24 14:25:47;;;;;;;;;;;;;;;;;;4945560;28;19931;-82
2023/02/24 14:28:34;;;;;;;;;;;;;;;;;;4945074;29;19918;-82
2023/02/24 14:31:20;;;;;;;;;;;;;;;;;;4931664;28;19922;-82
2023/02/24 14:34:07;;;;;;;;;;;;;;;;;;4942689;29;19963;-82
2023/02/24 14:36:54;;;;;;;;;;;;;;;;;;4935738;29;19915;-81
2023/02/24 14:39:40;;;;;;;;;;;;;;;;;;4943463;29;19922;-82
2023/02/24 14:42:28;;;;;;;;;;;;;;;;;;4945689;28;19933;-81
2023/02/24 14:45:14;;;;;;;;;;;;;;;;;;4942057;28;19933;-82
2023/02/24 14:48:01;;;;;;;;;;;;;;;;;;4941694;28;20382;-81
2023/02/24 14:50:47;;;;;;;;;;;;;;;;;;4947304;28;19935;-82
2023/02/24 14:53:33;;;;;;;;;;;;;;;;;;4943823;28;19925;-82
2023/02/24 14:56:20;;;;;;;;;;;;;;;;;;4945044;29;19915;-82
2023/02/24 14:59:06;;;;;;;;;;;;;;;;;;4925075;29;19918;-82
2023/02/24 15:01:53;;;;;;;;;;;;;;;;;;4943930;28;19923;-82
2023/02/24 15:04:42;;;;;;;;;;;;;;;;;;4935062;28;20283;-80
2023/02/24 15:07:28;;;;;;;;;;;;;;;;;;4932104;29;19931;-81
2023/02/24 15:10:15;;;;;;;;;;;;;;;;;;4928045;29;19919;-81
2023/02/24 15:13:01;;;;;;;;;;;;;;;;;;4943139;28;20454;-81
2023/02/24 15:15:48;;;;;;;;;;;;;;;;;;4938190;28;19927;-81
2023/02/24 15:18:34;;;;;;;;;;;;;;;;;;4948820;29;20422;-82
2023/02/24 15:21:21;;;;;;;;;;;;;;;;;;4936724;28;19922;-81
2023/02/24 15:24:07;;;;;;;;;;;;;;;;;;4931805;29;19919;-82
2023/02/24 15:26:54;;;;;;;;;;;;;;;;;;4929520;29;19938;-81
2023/02/24 15:29:40;;;;;;;;;;;;;;;;;;4947173;28;19918;-81
2023/02/24 15:32:27;;;;;;;;;;;;;;;;;;4925002;28;19926;-82
2023/02/24 15:35:13;;;;;;;;;;;;;;;;;;4930895;29;19918;-82
2023/02/24 15:38:00;;;;;;;;;;;;;;;;;;4936913;28;20389;-81
2023/02/24 15:40:46;;;;;;;;;;;;;;;;;;4933160;29;20492;-82
2023/02/24 15:43:33;;;;;;;;;;;;;;;;;;4936903;28;19926;-82
2023/02/24 15:46:20;;;;;;;;;;;;;;;;;;4928562;28;19933;-81
2023/02/24 15:49:06;;;;;;;;;;;;;;;;;;4932220;28;19922;-81
2023/02/24 15:51:53;;;;;;;;;;;;;;;;;;4944887;28;19919;-80
2023/02/24 15:54:41;;;;;;;;;;;;;;;;;;4941726;29;19923;-83
2023/02/24 15:57:28;;;;;;;;;;;;;;;;;;4930059;29;19922;-81
2023/02/24 16:00:17;;;;;;;;;;;;;;;;;;4946332;29;20363;-82
2023/02/24 16:03:04;;;;;;;;;;;;;;;;;;4930914;29;19937;-81
2023/02/24 16:05:57;;;;;;;;;;;;;;;;;;4940157;28;20347;-82
2023/02/24 16:08:45;;;;;;;;;;;;;;;;;;4948477;29;19937;-82
2023/02/24 16:11:32;;;;;;;;;;;;;;;;;;4940962;29;19922;-82
2023/02/24 16:14:19;;;;;;;;;;;;;;;;;;4942203;28;19970;-77
2023/02/24 16:17:05;;;;;;;;;;;;;;;;;;4937630;28;19929;-80
2023/02/24 16:19:52;;;;;;;;;;;;;;;;;;4939366;28;19923;-78
2023/02/24 16:22:38;;;;;;;;;;;;;;;;;;4935270;28;19926;-81
2023/02/24 16:25:25;;;;;;;;;;;;;;;;;;4938315;28;19931;-81
2023/02/24 16:28:11;;;;;;;;;;;;;;;;;;4932666;28;19929;-82
2023/02/24 16:30:58;;;;;;;;;;;;;;;;;;4928382;28;19926;-80
2023/02/24 16:33:44;;;;;;;;;;;;;;;;;;4943652;28;20111;-81
2023/02/24 16:36:31;;;;;;;;;;;;;;;;;;4926952;29;19937;-81
2023/02/24 16:39:18;;;;;;;;;;;;;;;;;;4935423;28;19918;-82
2023/02/24 16:42:06;;;;;;;;;;;;;;;;;;4936684;28;19923;-82
2023/02/24 16:44:52;;;;;;;;;;;;;;;;;;4937191;28;20568;-81
2023/02/24 16:47:39;;;;;;;;;;;;;;;;;;4941755;28;19929;-77
2023/02/24 16:50:25;;;;;;;;;;;;;;;;;;4942565;28;19925;-77
2023/02/24 16:53:12;;;;;;;;;;;;;;;;;;4935550;28;19929;-76
2023/02/24 16:55:58;;;;;;;;;;;;;;;;;;4935467;28;19933;-78
2023/02/24 16:58:45;;;;;;;;;;;;;;;;;;4937085;28;19927;-76
2023/02/24 17:01:31;;;;;;;;;;;;;;;;;;4932220;28;19918;-77
2023/02/24 17:04:19;;;;;;;;;;;;;;;;;;4931385;28;20315;-77
2023/02/24 17:07:05;;;;;;;;;;;;;;;;;;4930380;28;19942;-78
2023/02/24 17:09:52;;;;;;;;;;;;;;;;;;4937150;28;19926;-78
2023/02/24 17:12:38;;;;;;;;;;;;;;;;;;4935422;28;19922;-76
2023/02/24 17:15:26;;;;;;;;;;;;;;;;;;4934781;28;20590;-76
2023/02/24 17:18:13;;;;;;;;;;;;;;;;;;4933104;29;19923;-77
2023/02/24 17:20:59;;;;;;;;;;;;;;;;;;4933555;28;20395;-76
2023/02/24 17:23:45;;;;;;;;;;;;;;;;;;4935931;28;19916;-75
2023/02/24 17:26:32;;;;;;;;;;;;;;;;;;4921917;28;19981;-78
2023/02/24 17:29:18;;;;;;;;;;;;;;;;;;4936232;28;19926;-77
2023/02/24 17:32:05;;;;;;;;;;;;;;;;;;4936545;28;20398;-76
2023/02/24 17:34:51;;;;;;;;;;;;;;;;;;4928512;28;19915;-77
2023/02/24 17:37:38;;;;;;;;;;;;;;;;;;4934587;28;19968;-78
2023/02/24 17:40:25;;;;;;;;;;;;;;;;;;4933820;28;19923;-76
2023/02/24 17:43:11;;;;;;;;;;;;;;;;;;4932368;28;20327;-78
2023/02/24 17:45:57;;;;;;;;;;;;;;;;;;4928119;28;19930;-78
2023/02/24 17:48:44;;;;;;;;;;;;;;;;;;4933164;28;19965;-77
2023/02/24 17:51:30;;;;;;;;;;;;;;;;;;4922850;29;19933;-79
2023/02/24 17:54:17;;;;;;;;;;;;;;;;;;4917772;28;19915;-77
2023/02/24 17:57:04;;;;;;;;;;;;;;;;;;4929370;29;19922;-78
2023/02/24 17:59:50;;;;;;;;;;;;;;;;;;4944148;28;19923;-79
2023/02/24 18:02:37;;;;;;;;;;;;;;;;;;4925330;28;19923;-77
2023/02/24 18:05:23;;;;;;;;;;;;;;;;;;4919872;29;20669;-78
2023/02/24 18:08:10;;;;;;;;;;;;;;;;;;4929515;28;19930;-78
2023/02/24 18:10:57;;;;;;;;;;;;;;;;;;4935900;28;20678;-79
2023/02/24 18:13:44;;;;;;;;;;;;;;;;;;4932371;28;19938;-78
2023/02/24 18:16:30;;;;;;;;;;;;;;;;;;4931821;28;19919;-78
2023/02/24 18:19:17;;;;;;;;;;;;;;;;;;4936430;28;19925;-79
2023/02/24 18:22:06;;;;;;;;;;;;;;;;;;4935616;28;19919;-78
2023/02/24 18:24:53;;;;;;;;;;;;;;;;;;4935333;28;19951;-78
2023/02/24 18:27:39;;;;;;;;;;;;;;;;;;4930906;29;19927;-77
2023/02/24 18:30:26;;;;;;;;;;;;;;;;;;4942046;28;19922;-78
2023/02/24 18:33:12;;;;;;;;;;;;;;;;;;4927680;28;19923;-78
2023/02/24 18:35:59;;;;;;;;;;;;;;;;;;4932441;28;19925;-79
2023/02/24 18:38:45;;;;;;;;;;;;;;;;;;4942694;28;19929;-77
2023/02/24 18:41:32;;;;;;;;;;;;;;;;;;4933574;28;19919;-76
2023/02/24 18:44:18;;;;;;;;;;;;;;;;;;4936512;28;20370;-76
2023/02/24 18:47:08;;;;;;;;;;;;;;;;;;4932360;28;19934;-76
2023/02/24 18:49:54;;;;;;;;;;;;;;;;;;4930426;28;19918;-77
2023/02/24 18:52:41;;;;;;;;;;;;;;;;;;4937353;28;19938;-77
2023/02/24 18:55:27;;;;;;;;;;;;;;;;;;4936399;28;19925;-77
2023/02/24 18:58:14;;;;;;;;;;;;;;;;;;4935731;28;19930;-77
2023/02/24 19:01:00;;;;;;;;;;;;;;;;;;4926703;28;19918;-77
2023/02/24 19:03:47;;;;;;;;;;;;;;;;;;4937275;28;19922;-78
2023/02/24 19:06:33;;;;;;;;;;;;;;;;;;4926566;28;19931;-77
2023/02/24 19:09:21;;;;;;;;;;;;;;;;;;4934304;28;20012;-76
2023/02/24 19:12:07;;;;;;;;;;;;;;;;;;4937355;28;19941;-76
2023/02/24 19:14:54;;;;;;;;;;;;;;;;;;4939325;28;19926;-75
2023/02/24 19:17:40;;;;;;;;;;;;;;;;;;4948422;28;19929;-75
2023/02/24 19:20:27;;;;;;;;;;;;;;;;;;4938569;28;19918;-74
2023/02/24 19:23:13;;;;;;;;;;;;;;;;;;4934646;29;19921;-74
2023/02/24 19:26:00;;;;;;;;;;;;;;;;;;4940218;29;19933;-75